sensor_id;sensor_type;location;lat;lon;timestamp;temperature;humidity
18281;DHT22;9266;51.132;17.062;2023-05-16T00:01:59;10.80;99.90
18281;DHT22;9266;51.132;17.062;2023-05-16T00:04:26;10.80;99.90
18281;DHT22;9266;51.132;17.062;2023-05-16T00:06:53;10.80;99.90
18281;DHT22;9266;51.132;17.062;2023-05-16T00:09:22;10.90;99.90
18281;DHT22;9266;51.132;17.062;2023-05-16T00:15:11;10.90;99.90
18281;DHT22;9266;51.132;17.062;2023-05-16T00:17:39;11.00;99.90
18281;DHT22;9266;51.132;17.062;2023-05-16T00:20:09;11.00;99.90
18281;DHT22;9266;51.132;17.062;2023-05-16T00:22:36;11.10;99.90
18281;DHT22;9266;51.132;17.062;2023-05-16T00:25:05;11.00;99.90
18281;DHT22;9266;51.132;17.062;2023-05-16T00:27:33;11.00;99.90
18281;DHT22;9266;51.132;17.062;2023-05-16T00:30:01;11.00;99.90
18281;DHT22;9266;51.132;17.062;2023-05-16T00:32:27;11.00;99.90
18281;DHT22;9266;51.132;17.062;2023-05-16T00:34:54;11.10;99.90
18281;DHT22;9266;51.132;17.062;2023-05-16T00:37:21;11.10;99.90
18281;DHT22;9266;51.132;17.062;2023-05-16T00:39:48;11.10;99.90
18281;DHT22;9266;51.132;17.062;2023-05-16T00:42:18;11.20;99.90
18281;DHT22;9266;51.132;17.062;2023-05-16T00:44:45;11.20;99.90
18281;DHT22;9266;51.132;17.062;2023-05-16T00:47:12;11.20;99.90
18281;DHT22;9266;51.132;17.062;2023-05-16T00:49:39;11.20;99.90
18281;DHT22;9266;51.132;17.062;2023-05-16T00:52:06;11.20;99.90
18281;DHT22;9266;51.132;17.062;2023-05-16T00:54:33;11.20;99.90
18281;DHT22;9266;51.132;17.062;2023-05-16T00:57:01;11.30;99.90
18281;DHT22;9266;51.132;17.062;2023-05-16T00:59:29;11.40;99.90
18281;DHT22;9266;51.132;17.062;2023-05-16T01:01:56;11.30;99.90
18281;DHT22;9266;51.132;17.062;2023-05-16T01:04:23;11.30;99.90
18281;DHT22;9266;51.132;17.062;2023-05-16T01:06:51;11.40;99.90
18281;DHT22;9266;51.132;17.062;2023-05-16T01:09:19;11.40;99.90
18281;DHT22;9266;51.132;17.062;2023-05-16T01:11:52;11.30;99.90
18281;DHT22;9266;51.132;17.062;2023-05-16T01:14:32;11.30;99.90
18281;DHT22;9266;51.132;17.062;2023-05-16T01:17:07;11.30;99.90
18281;DHT22;9266;51.132;17.062;2023-05-16T01:19:50;11.30;99.90
18281;DHT22;9266;51.132;17.062;2023-05-16T01:22:28;11.20;99.90
18281;DHT22;9266;51.132;17.062;2023-05-16T01:25:05;11.10;99.90
18281;DHT22;9266;51.132;17.062;2023-05-16T01:27:40;11.10;99.90
18281;DHT22;9266;51.132;17.062;2023-05-16T01:30:13;11.10;99.90
18281;DHT22;9266;51.132;17.062;2023-05-16T01:32:41;11.20;99.90
18281;DHT22;9266;51.132;17.062;2023-05-16T01:35:10;11.30;99.90
18281;DHT22;9266;51.132;17.062;2023-05-16T01:37:41;11.30;99.90
18281;DHT22;9266;51.132;17.062;2023-05-16T01:40:14;11.20;99.90
18281;DHT22;9266;51.132;17.062;2023-05-16T01:42:45;11.10;99.90
18281;DHT22;9266;51.132;17.062;2023-05-16T01:45:17;11.10;99.90
18281;DHT22;9266;51.132;17.062;2023-05-16T01:47:51;11.10;99.90
18281;DHT22;9266;51.132;17.062;2023-05-16T01:50:24;11.10;99.90
18281;DHT22;9266;51.132;17.062;2023-05-16T01:52:57;11.10;99.90
18281;DHT22;9266;51.132;17.062;2023-05-16T01:55:38;11.10;99.90
18281;DHT22;9266;51.132;17.062;2023-05-16T01:58:10;11.00;99.90
18281;DHT22;9266;51.132;17.062;2023-05-16T02:00:39;11.10;99.90
18281;DHT22;9266;51.132;17.062;2023-05-16T02:03:06;11.10;99.90
18281;DHT22;9266;51.132;17.062;2023-05-16T02:05:33;11.10;99.90
18281;DHT22;9266;51.132;17.062;2023-05-16T02:08:00;11.10;99.90
18281;DHT22;9266;51.132;17.062;2023-05-16T02:10:27;11.00;99.90
18281;DHT22;9266;51.132;17.062;2023-05-16T02:12:54;11.10;99.90
18281;DHT22;9266;51.132;17.062;2023-05-16T02:15:23;11.00;99.90
18281;DHT22;9266;51.132;17.062;2023-05-16T02:17:50;10.90;99.90
18281;DHT22;9266;51.132;17.062;2023-05-16T02:20:17;10.90;99.90
18281;DHT22;9266;51.132;17.062;2023-05-16T02:22:44;10.90;99.90
18281;DHT22;9266;51.132;17.062;2023-05-16T02:25:13;10.80;99.90
18281;DHT22;9266;51.132;17.062;2023-05-16T02:27:40;10.70;99.90
18281;DHT22;9266;51.132;17.062;2023-05-16T02:30:08;10.70;99.90
18281;DHT22;9266;51.132;17.062;2023-05-16T02:32:37;10.60;99.90
18281;DHT22;9266;51.132;17.062;2023-05-16T02:35:05;10.60;99.90
18281;DHT22;9266;51.132;17.062;2023-05-16T02:37:32;10.70;99.90
18281;DHT22;9266;51.132;17.062;2023-05-16T02:39:59;10.70;99.90
18281;DHT22;9266;51.132;17.062;2023-05-16T02:42:26;10.60;99.90
18281;DHT22;9266;51.132;17.062;2023-05-16T02:44:53;10.60;99.90
18281;DHT22;9266;51.132;17.062;2023-05-16T02:47:20;10.60;99.90
18281;DHT22;9266;51.132;17.062;2023-05-16T02:49:49;10.70;99.90
18281;DHT22;9266;51.132;17.062;2023-05-16T02:52:17;10.60;99.90
18281;DHT22;9266;51.132;17.062;2023-05-16T02:54:44;10.70;99.90
18281;DHT22;9266;51.132;17.062;2023-05-16T02:57:11;10.60;99.90
18281;DHT22;9266;51.132;17.062;2023-05-16T02:59:38;10.60;99.90
18281;DHT22;9266;51.132;17.062;2023-05-16T03:02:05;10.60;99.90
18281;DHT22;9266;51.132;17.062;2023-05-16T03:04:32;10.60;99.90
18281;DHT22;9266;51.132;17.062;2023-05-16T03:07:01;10.70;99.90
18281;DHT22;9266;51.132;17.062;2023-05-16T03:09:28;10.70;99.90
18281;DHT22;9266;51.132;17.062;2023-05-16T03:11:55;10.60;99.90
18281;DHT22;9266;51.132;17.062;2023-05-16T03:14:24;10.60;99.90
18281;DHT22;9266;51.132;17.062;2023-05-16T03:16:51;10.60;99.90
18281;DHT22;9266;51.132;17.062;2023-05-16T03:19:18;10.60;99.90
18281;DHT22;9266;51.132;17.062;2023-05-16T03:21:45;10.60;99.90
18281;DHT22;9266;51.132;17.062;2023-05-16T03:24:13;10.80;99.90
18281;DHT22;9266;51.132;17.062;2023-05-16T03:26:40;11.10;99.90
18281;DHT22;9266;51.132;17.062;2023-05-16T03:29:07;11.20;99.90
18281;DHT22;9266;51.132;17.062;2023-05-16T03:31:34;11.40;99.90
18281;DHT22;9266;51.132;17.062;2023-05-16T03:34:01;11.70;99.90
18281;DHT22;9266;51.132;17.062;2023-05-16T03:36:28;11.90;99.90
18281;DHT22;9266;51.132;17.062;2023-05-16T03:38:56;12.30;99.90
18281;DHT22;9266;51.132;17.062;2023-05-16T03:41:24;12.60;99.90
18281;DHT22;9266;51.132;17.062;2023-05-16T03:43:51;13.00;99.90
18281;DHT22;9266;51.132;17.062;2023-05-16T03:46:18;13.30;99.90
18281;DHT22;9266;51.132;17.062;2023-05-16T03:48:45;13.60;99.90
18281;DHT22;9266;51.132;17.062;2023-05-16T03:51:12;14.00;70.90
18281;DHT22;9266;51.132;17.062;2023-05-16T03:53:39;14.20;1.00
18281;DHT22;9266;51.132;17.062;2023-05-16T03:56:06;14.20;99.90
18281;DHT22;9266;51.132;17.062;2023-05-16T03:58:35;14.50;99.90
18281;DHT22;9266;51.132;17.062;2023-05-16T04:01:02;15.10;99.90
18281;DHT22;9266;51.132;17.062;2023-05-16T04:03:29;15.40;1.00
18281;DHT22;9266;51.132;17.062;2023-05-16T04:05:58;15.40;1.00
18281;DHT22;9266;51.132;17.062;2023-05-16T04:08:25;15.60;99.90
18281;DHT22;9266;51.132;17.062;2023-05-16T04:10:52;15.50;1.00
18281;DHT22;9266;51.132;17.062;2023-05-16T04:13:20;15.40;49.50
18281;DHT22;9266;51.132;17.062;2023-05-16T04:15:49;15.70;1.00
18281;DHT22;9266;51.132;17.062;2023-05-16T04:18:16;15.70;21.10
18281;DHT22;9266;51.132;17.062;2023-05-16T04:20:43;16.00;99.90
18281;DHT22;9266;51.132;17.062;2023-05-16T04:23:12;16.40;1.00
18281;DHT22;9266;51.132;17.062;2023-05-16T04:25:39;16.00;1.00
18281;DHT22;9266;51.132;17.062;2023-05-16T04:28:06;16.00;1.00
18281;DHT22;9266;51.132;17.062;2023-05-16T04:30:34;16.00;1.00
18281;DHT22;9266;51.132;17.062;2023-05-16T04:33:03;16.30;1.00
18281;DHT22;9266;51.132;17.062;2023-05-16T04:35:30;16.50;1.00
18281;DHT22;9266;51.132;17.062;2023-05-16T04:37:58;16.70;99.90
18281;DHT22;9266;51.132;17.062;2023-05-16T04:40:25;17.40;1.00
18281;DHT22;9266;51.132;17.062;2023-05-16T04:42:52;17.80;99.90
18281;DHT22;9266;51.132;17.062;2023-05-16T04:45:19;17.40;1.00
18281;DHT22;9266;51.132;17.062;2023-05-16T04:47:47;16.50;99.90
18281;DHT22;9266;51.132;17.062;2023-05-16T04:50:15;16.60;99.90
18281;DHT22;9266;51.132;17.062;2023-05-16T04:52:42;16.40;99.90
18281;DHT22;9266;51.132;17.062;2023-05-16T04:55:10;16.90;99.90
18281;DHT22;9266;51.132;17.062;2023-05-16T04:57:37;17.40;1.00
18281;DHT22;9266;51.132;17.062;2023-05-16T05:00:06;18.70;1.00
18281;DHT22;9266;51.132;17.062;2023-05-16T05:02:35;18.70;1.00
18281;DHT22;9266;51.132;17.062;2023-05-16T05:05:03;19.20;1.00
18281;DHT22;9266;51.132;17.062;2023-05-16T05:07:31;19.30;99.90
18281;DHT22;9266;51.132;17.062;2023-05-16T05:09:58;19.00;99.90
18281;DHT22;9266;51.132;17.062;2023-05-16T05:12:26;19.80;99.90
18281;DHT22;9266;51.132;17.062;2023-05-16T05:14:53;20.50;99.90
18281;DHT22;9266;51.132;17.062;2023-05-16T05:17:21;20.50;99.90
18281;DHT22;9266;51.132;17.062;2023-05-16T05:19:49;20.60;99.90
18281;DHT22;9266;51.132;17.062;2023-05-16T05:22:16;21.00;40.60
18281;DHT22;9266;51.132;17.062;2023-05-16T05:24:44;21.30;1.00
18281;DHT22;9266;51.132;17.062;2023-05-16T05:27:11;21.20;1.00
18281;DHT22;9266;51.132;17.062;2023-05-16T05:29:38;20.50;1.00
18281;DHT22;9266;51.132;17.062;2023-05-16T05:32:06;20.40;1.00
18281;DHT22;9266;51.132;17.062;2023-05-16T05:34:34;20.60;1.00
18281;DHT22;9266;51.132;17.062;2023-05-16T05:37:01;20.30;1.00
18281;DHT22;9266;51.132;17.062;2023-05-16T05:39:28;20.30;1.00
18281;DHT22;9266;51.132;17.062;2023-05-16T05:41:57;20.80;1.00
18281;DHT22;9266;51.132;17.062;2023-05-16T05:44:24;21.30;1.00
18281;DHT22;9266;51.132;17.062;2023-05-16T05:46:51;21.10;1.00
18281;DHT22;9266;51.132;17.062;2023-05-16T05:49:18;21.20;1.00
18281;DHT22;9266;51.132;17.062;2023-05-16T05:51:45;20.90;1.00
18281;DHT22;9266;51.132;17.062;2023-05-16T05:54:12;21.10;1.00
18281;DHT22;9266;51.132;17.062;2023-05-16T05:56:39;21.70;1.00
18281;DHT22;9266;51.132;17.062;2023-05-16T05:59:08;21.60;1.00
18281;DHT22;9266;51.132;17.062;2023-05-16T06:01:35;20.50;1.00
18281;DHT22;9266;51.132;17.062;2023-05-16T06:04:02;19.70;1.00
18281;DHT22;9266;51.132;17.062;2023-05-16T06:06:29;19.80;1.00
18281;DHT22;9266;51.132;17.062;2023-05-16T06:08:56;19.00;1.00
18281;DHT22;9266;51.132;17.062;2023-05-16T06:11:23;18.40;99.90
18281;DHT22;9266;51.132;17.062;2023-05-16T06:13:51;18.20;99.90
18281;DHT22;9266;51.132;17.062;2023-05-16T06:16:23;18.80;99.90
18281;DHT22;9266;51.132;17.062;2023-05-16T06:18:50;19.50;99.90
18281;DHT22;9266;51.132;17.062;2023-05-16T06:21:17;19.80;99.90
18281;DHT22;9266;51.132;17.062;2023-05-16T06:23:44;19.90;36.00
18281;DHT22;9266;51.132;17.062;2023-05-16T06:26:11;19.00;99.90
18281;DHT22;9266;51.132;17.062;2023-05-16T06:28:38;19.00;99.90
18281;DHT22;9266;51.132;17.062;2023-05-16T06:31:05;19.40;99.90
18281;DHT22;9266;51.132;17.062;2023-05-16T06:33:34;19.50;99.90
18281;DHT22;9266;51.132;17.062;2023-05-16T06:36:01;19.00;99.90
18281;DHT22;9266;51.132;17.062;2023-05-16T06:38:28;19.30;99.90
18281;DHT22;9266;51.132;17.062;2023-05-16T06:40:55;19.20;99.90
18281;DHT22;9266;51.132;17.062;2023-05-16T06:43:21;19.40;99.90
18281;DHT22;9266;51.132;17.062;2023-05-16T06:45:48;19.20;99.90
18281;DHT22;9266;51.132;17.062;2023-05-16T06:48:17;18.70;99.90
18281;DHT22;9266;51.132;17.062;2023-05-16T06:50:48;18.80;99.90
18281;DHT22;9266;51.132;17.062;2023-05-16T06:53:16;17.80;1.00
18281;DHT22;9266;51.132;17.062;2023-05-16T06:55:43;17.80;55.30
18281;DHT22;9266;51.132;17.062;2023-05-16T06:58:10;17.70;1.00
18281;DHT22;9266;51.132;17.062;2023-05-16T07:00:38;17.90;1.00
18281;DHT22;9266;51.132;17.062;2023-05-16T07:03:05;18.00;1.00
18281;DHT22;9266;51.132;17.062;2023-05-16T07:05:32;18.20;1.00
18281;DHT22;9266;51.132;17.062;2023-05-16T07:08:00;18.30;1.00
18281;DHT22;9266;51.132;17.062;2023-05-16T07:10:28;18.80;1.00
18281;DHT22;9266;51.132;17.062;2023-05-16T07:12:55;19.20;1.00
18281;DHT22;9266;51.132;17.062;2023-05-16T07:15:22;19.40;1.00
18281;DHT22;9266;51.132;17.062;2023-05-16T07:17:49;19.80;99.90
18281;DHT22;9266;51.132;17.062;2023-05-16T07:20:17;20.50;99.90
18281;DHT22;9266;51.132;17.062;2023-05-16T07:22:44;19.90;99.90
18281;DHT22;9266;51.132;17.062;2023-05-16T07:25:12;19.20;99.90
18281;DHT22;9266;51.132;17.062;2023-05-16T07:27:40;19.40;99.90
18281;DHT22;9266;51.132;17.062;2023-05-16T07:30:11;19.30;99.90
18281;DHT22;9266;51.132;17.062;2023-05-16T07:32:39;18.40;1.00
18281;DHT22;9266;51.132;17.062;2023-05-16T07:35:08;19.10;1.00
18281;DHT22;9266;51.132;17.062;2023-05-16T07:37:35;19.60;99.90
18281;DHT22;9266;51.132;17.062;2023-05-16T07:40:03;19.80;99.90
18281;DHT22;9266;51.132;17.062;2023-05-16T07:42:31;19.60;99.90
18281;DHT22;9266;51.132;17.062;2023-05-16T07:44:58;20.20;99.90
18281;DHT22;9266;51.132;17.062;2023-05-16T07:47:26;20.10;99.90
18281;DHT22;9266;51.132;17.062;2023-05-16T07:49:54;19.50;99.90
18281;DHT22;9266;51.132;17.062;2023-05-16T07:52:21;19.20;99.90
18281;DHT22;9266;51.132;17.062;2023-05-16T07:54:48;19.20;1.00
18281;DHT22;9266;51.132;17.062;2023-05-16T07:57:15;19.80;99.90
18281;DHT22;9266;51.132;17.062;2023-05-16T07:59:43;19.70;99.90
18281;DHT22;9266;51.132;17.062;2023-05-16T08:02:11;20.10;99.90
18281;DHT22;9266;51.132;17.062;2023-05-16T08:04:38;19.80;99.90
18281;DHT22;9266;51.132;17.062;2023-05-16T08:07:05;19.10;99.90
18281;DHT22;9266;51.132;17.062;2023-05-16T08:09:33;19.30;99.90
18281;DHT22;9266;51.132;17.062;2023-05-16T08:12:00;19.10;99.90
18281;DHT22;9266;51.132;17.062;2023-05-16T08:14:29;18.90;99.90
18281;DHT22;9266;51.132;17.062;2023-05-16T08:16:58;17.90;1.00
18281;DHT22;9266;51.132;17.062;2023-05-16T08:19:26;17.30;99.90
18281;DHT22;9266;51.132;17.062;2023-05-16T08:21:53;17.40;99.90
18281;DHT22;9266;51.132;17.062;2023-05-16T08:24:20;18.00;1.00
18281;DHT22;9266;51.132;17.062;2023-05-16T08:26:47;18.50;1.00
18281;DHT22;9266;51.132;17.062;2023-05-16T08:29:14;19.20;1.00
18281;DHT22;9266;51.132;17.062;2023-05-16T08:31:42;19.20;99.90
18281;DHT22;9266;51.132;17.062;2023-05-16T08:34:10;18.80;1.00
18281;DHT22;9266;51.132;17.062;2023-05-16T08:36:37;18.60;1.00
18281;DHT22;9266;51.132;17.062;2023-05-16T08:39:04;19.00;99.90
18281;DHT22;9266;51.132;17.062;2023-05-16T08:41:32;19.10;99.90
18281;DHT22;9266;51.132;17.062;2023-05-16T08:43:59;19.40;99.90
18281;DHT22;9266;51.132;17.062;2023-05-16T08:46:28;19.70;99.90
18281;DHT22;9266;51.132;17.062;2023-05-16T08:48:58;18.50;99.90
18281;DHT22;9266;51.132;17.062;2023-05-16T08:51:32;18.40;1.00
18281;DHT22;9266;51.132;17.062;2023-05-16T08:54:02;19.60;99.90
18281;DHT22;9266;51.132;17.062;2023-05-16T08:56:30;19.70;99.90
18281;DHT22;9266;51.132;17.062;2023-05-16T08:59:00;19.20;99.90
18281;DHT22;9266;51.132;17.062;2023-05-16T09:01:29;19.90;99.90
18281;DHT22;9266;51.132;17.062;2023-05-16T09:03:57;20.60;99.90
18281;DHT22;9266;51.132;17.062;2023-05-16T09:06:24;20.00;99.90
18281;DHT22;9266;51.132;17.062;2023-05-16T09:08:53;19.40;99.90
18281;DHT22;9266;51.132;17.062;2023-05-16T09:11:21;19.40;99.90
18281;DHT22;9266;51.132;17.062;2023-05-16T09:13:48;20.20;99.90
18281;DHT22;9266;51.132;17.062;2023-05-16T09:16:17;20.30;3.40
18281;DHT22;9266;51.132;17.062;2023-05-16T09:18:46;20.90;1.00
18281;DHT22;9266;51.132;17.062;2023-05-16T09:21:18;20.60;1.00
18281;DHT22;9266;51.132;17.062;2023-05-16T09:23:48;20.00;1.00
18281;DHT22;9266;51.132;17.062;2023-05-16T09:26:17;19.70;1.00
18281;DHT22;9266;51.132;17.062;2023-05-16T09:28:45;19.60;1.00
18281;DHT22;9266;51.132;17.062;2023-05-16T09:31:22;20.00;19.00
18281;DHT22;9266;51.132;17.062;2023-05-16T09:33:51;19.80;29.30
18281;DHT22;9266;51.132;17.062;2023-05-16T09:36:18;20.30;24.70
18281;DHT22;9266;51.132;17.062;2023-05-16T09:38:45;20.20;1.00
18281;DHT22;9266;51.132;17.062;2023-05-16T09:41:12;19.20;1.00
18281;DHT22;9266;51.132;17.062;2023-05-16T09:43:41;20.00;1.00
18281;DHT22;9266;51.132;17.062;2023-05-16T09:46:11;20.20;1.00
18281;DHT22;9266;51.132;17.062;2023-05-16T09:48:40;20.50;1.00
18281;DHT22;9266;51.132;17.062;2023-05-16T09:51:08;20.50;1.00
18281;DHT22;9266;51.132;17.062;2023-05-16T09:53:37;20.20;1.00
18281;DHT22;9266;51.132;17.062;2023-05-16T09:56:06;20.50;1.00
18281;DHT22;9266;51.132;17.062;2023-05-16T09:58:35;20.60;1.00
18281;DHT22;9266;51.132;17.062;2023-05-16T10:01:04;20.40;1.00
18281;DHT22;9266;51.132;17.062;2023-05-16T10:03:33;19.90;1.00
18281;DHT22;9266;51.132;17.062;2023-05-16T10:06:01;19.30;1.00
18281;DHT22;9266;51.132;17.062;2023-05-16T10:08:30;19.20;1.00
18281;DHT22;9266;51.132;17.062;2023-05-16T10:11:01;19.30;1.00
18281;DHT22;9266;51.132;17.062;2023-05-16T10:13:30;19.90;1.00
18281;DHT22;9266;51.132;17.062;2023-05-16T10:15:59;19.90;1.00
18281;DHT22;9266;51.132;17.062;2023-05-16T10:18:30;19.80;1.00
18281;DHT22;9266;51.132;17.062;2023-05-16T10:21:03;20.20;1.00
18281;DHT22;9266;51.132;17.062;2023-05-16T10:23:32;20.50;1.00
18281;DHT22;9266;51.132;17.062;2023-05-16T10:26:01;20.80;1.00
18281;DHT22;9266;51.132;17.062;2023-05-16T10:28:29;20.60;1.00
18281;DHT22;9266;51.132;17.062;2023-05-16T10:30:56;20.40;1.00
18281;DHT22;9266;51.132;17.062;2023-05-16T10:33:23;20.00;1.00
18281;DHT22;9266;51.132;17.062;2023-05-16T10:35:52;19.20;1.00
18281;DHT22;9266;51.132;17.062;2023-05-16T10:38:20;19.90;1.00
18281;DHT22;9266;51.132;17.062;2023-05-16T10:40:49;20.20;1.00
18281;DHT22;9266;51.132;17.062;2023-05-16T10:43:24;19.60;1.00
18281;DHT22;9266;51.132;17.062;2023-05-16T10:45:56;19.60;1.00
18281;DHT22;9266;51.132;17.062;2023-05-16T10:48:30;19.30;1.00
18281;DHT22;9266;51.132;17.062;2023-05-16T10:50:59;19.30;1.00
18281;DHT22;9266;51.132;17.062;2023-05-16T10:53:31;19.30;1.00
18281;DHT22;9266;51.132;17.062;2023-05-16T10:56:08;19.00;99.90
18281;DHT22;9266;51.132;17.062;2023-05-16T10:58:43;19.70;54.10
18281;DHT22;9266;51.132;17.062;2023-05-16T11:01:18;20.00;1.00
18281;DHT22;9266;51.132;17.062;2023-05-16T11:04:04;19.70;1.00
18281;DHT22;9266;51.132;17.062;2023-05-16T11:06:34;19.90;1.00
18281;DHT22;9266;51.132;17.062;2023-05-16T11:09:23;20.00;1.00
18281;DHT22;9266;51.132;17.062;2023-05-16T11:11:57;20.20;1.00
18281;DHT22;9266;51.132;17.062;2023-05-16T11:14:26;19.50;1.00
18281;DHT22;9266;51.132;17.062;2023-05-16T11:17:01;19.50;1.00
18281;DHT22;9266;51.132;17.062;2023-05-16T11:19:30;19.50;16.20
18281;DHT22;9266;51.132;17.062;2023-05-16T11:22:09;20.00;16.20
18281;DHT22;9266;51.132;17.062;2023-05-16T11:24:49;20.00;1.00
18281;DHT22;9266;51.132;17.062;2023-05-16T11:27:21;20.10;1.00
18281;DHT22;9266;51.132;17.062;2023-05-16T11:29:50;19.90;1.00
18281;DHT22;9266;51.132;17.062;2023-05-16T11:32:22;19.10;72.10
18281;DHT22;9266;51.132;17.062;2023-05-16T11:34:50;19.40;99.90
18281;DHT22;9266;51.132;17.062;2023-05-16T11:37:19;19.40;90.00
18281;DHT22;9266;51.132;17.062;2023-05-16T11:39:47;19.30;99.90
18281;DHT22;9266;51.132;17.062;2023-05-16T11:42:14;18.60;99.90
18281;DHT22;9266;51.132;17.062;2023-05-16T11:44:42;18.80;99.90
18281;DHT22;9266;51.132;17.062;2023-05-16T11:47:09;18.80;99.90
18281;DHT22;9266;51.132;17.062;2023-05-16T11:49:36;18.80;99.90
18281;DHT22;9266;51.132;17.062;2023-05-16T11:52:04;18.00;99.90
18281;DHT22;9266;51.132;17.062;2023-05-16T11:54:33;18.10;1.00
18281;DHT22;9266;51.132;17.062;2023-05-16T11:57:01;18.70;99.90
18281;DHT22;9266;51.132;17.062;2023-05-16T11:59:28;19.20;99.90
18281;DHT22;9266;51.132;17.062;2023-05-16T12:01:55;19.30;99.90
18281;DHT22;9266;51.132;17.062;2023-05-16T12:04:22;19.80;99.90
18281;DHT22;9266;51.132;17.062;2023-05-16T12:06:59;19.80;99.90
18281;DHT22;9266;51.132;17.062;2023-05-16T12:09:27;20.10;99.90
18281;DHT22;9266;51.132;17.062;2023-05-16T12:11:57;19.80;99.90
18281;DHT22;9266;51.132;17.062;2023-05-16T12:14:24;19.70;99.90
18281;DHT22;9266;51.132;17.062;2023-05-16T12:16:52;19.60;99.90
18281;DHT22;9266;51.132;17.062;2023-05-16T12:19:20;19.40;99.90
18281;DHT22;9266;51.132;17.062;2023-05-16T12:21:51;19.60;99.90
18281;DHT22;9266;51.132;17.062;2023-05-16T12:24:19;19.40;99.90
18281;DHT22;9266;51.132;17.062;2023-05-16T12:26:47;19.10;99.90
18281;DHT22;9266;51.132;17.062;2023-05-16T12:29:15;19.00;99.90
18281;DHT22;9266;51.132;17.062;2023-05-16T12:31:43;18.70;99.90
18281;DHT22;9266;51.132;17.062;2023-05-16T12:34:17;18.30;1.00
18281;DHT22;9266;51.132;17.062;2023-05-16T12:36:50;18.20;1.00
18281;DHT22;9266;51.132;17.062;2023-05-16T12:39:17;17.90;1.00
18281;DHT22;9266;51.132;17.062;2023-05-16T12:41:44;17.80;1.00
18281;DHT22;9266;51.132;17.062;2023-05-16T12:44:12;17.90;1.00
18281;DHT22;9266;51.132;17.062;2023-05-16T12:46:43;17.90;1.00
18281;DHT22;9266;51.132;17.062;2023-05-16T12:49:11;18.10;1.00
18281;DHT22;9266;51.132;17.062;2023-05-16T12:51:39;18.00;1.00
18281;DHT22;9266;51.132;17.062;2023-05-16T12:54:08;18.20;1.00
18281;DHT22;9266;51.132;17.062;2023-05-16T12:56:36;17.90;1.00
18281;DHT22;9266;51.132;17.062;2023-05-16T12:59:03;17.70;1.00
18281;DHT22;9266;51.132;17.062;2023-05-16T13:01:30;17.70;1.00
18281;DHT22;9266;51.132;17.062;2023-05-16T13:03:59;17.60;1.00
18281;DHT22;9266;51.132;17.062;2023-05-16T13:06:26;17.80;1.00
18281;DHT22;9266;51.132;17.062;2023-05-16T13:08:53;17.60;1.00
18281;DHT22;9266;51.132;17.062;2023-05-16T13:11:20;17.80;1.00
18281;DHT22;9266;51.132;17.062;2023-05-16T13:13:47;17.90;1.00
18281;DHT22;9266;51.132;17.062;2023-05-16T13:16:15;17.70;1.00
18281;DHT22;9266;51.132;17.062;2023-05-16T13:18:42;17.50;1.00
18281;DHT22;9266;51.132;17.062;2023-05-16T13:21:10;17.10;99.90
18281;DHT22;9266;51.132;17.062;2023-05-16T13:23:37;16.60;1.00
18281;DHT22;9266;51.132;17.062;2023-05-16T13:26:05;16.60;46.10
18281;DHT22;9266;51.132;17.062;2023-05-16T13:28:32;16.50;99.90
18281;DHT22;9266;51.132;17.062;2023-05-16T13:30:59;16.40;1.00
18281;DHT22;9266;51.132;17.062;2023-05-16T13:33:26;15.20;1.00
18281;DHT22;9266;51.132;17.062;2023-05-16T13:35:53;16.60;99.90
18281;DHT22;9266;51.132;17.062;2023-05-16T13:38:22;16.40;1.00
18281;DHT22;9266;51.132;17.062;2023-05-16T13:40:49;16.20;1.00
18281;DHT22;9266;51.132;17.062;2023-05-16T13:43:16;16.20;1.00
18281;DHT22;9266;51.132;17.062;2023-05-16T13:45:43;16.00;65.20
18281;DHT22;9266;51.132;17.062;2023-05-16T13:48:10;16.10;99.90
18281;DHT22;9266;51.132;17.062;2023-05-16T13:50:39;16.10;1.00
18281;DHT22;9266;51.132;17.062;2023-05-16T13:53:06;16.00;99.90
18281;DHT22;9266;51.132;17.062;2023-05-16T13:55:35;16.10;1.00
18281;DHT22;9266;51.132;17.062;2023-05-16T13:58:02;15.90;1.00
18281;DHT22;9266;51.132;17.062;2023-05-16T14:00:30;15.80;1.00
18281;DHT22;9266;51.132;17.062;2023-05-16T14:02:57;15.80;99.90
18281;DHT22;9266;51.132;17.062;2023-05-16T14:05:24;15.80;24.60
18281;DHT22;9266;51.132;17.062;2023-05-16T14:07:52;15.80;99.90
18281;DHT22;9266;51.132;17.062;2023-05-16T14:10:19;15.80;99.90
18281;DHT22;9266;51.132;17.062;2023-05-16T14:12:47;15.70;1.00
18281;DHT22;9266;51.132;17.062;2023-05-16T14:15:14;15.80;99.90
18281;DHT22;9266;51.132;17.062;2023-05-16T14:17:41;15.90;99.90
18281;DHT22;9266;51.132;17.062;2023-05-16T14:20:09;16.10;1.00
18281;DHT22;9266;51.132;17.062;2023-05-16T14:22:37;16.00;1.00
18281;DHT22;9266;51.132;17.062;2023-05-16T14:25:05;14.90;1.00
18281;DHT22;9266;51.132;17.062;2023-05-16T14:27:32;15.50;89.60
18281;DHT22;9266;51.132;17.062;2023-05-16T14:30:01;15.30;56.40
18281;DHT22;9266;51.132;17.062;2023-05-16T14:32:28;15.10;1.00
18281;DHT22;9266;51.132;17.062;2023-05-16T14:34:55;14.90;99.90
18281;DHT22;9266;51.132;17.062;2023-05-16T14:37:22;15.00;1.00
18281;DHT22;9266;51.132;17.062;2023-05-16T14:39:50;15.10;1.00
18281;DHT22;9266;51.132;17.062;2023-05-16T14:42:17;15.10;1.00
18281;DHT22;9266;51.132;17.062;2023-05-16T14:44:44;14.90;99.90
18281;DHT22;9266;51.132;17.062;2023-05-16T14:47:13;14.90;1.00
18281;DHT22;9266;51.132;17.062;2023-05-16T14:49:41;14.90;1.00
18281;DHT22;9266;51.132;17.062;2023-05-16T14:52:08;14.80;1.00
18281;DHT22;9266;51.132;17.062;2023-05-16T14:54:35;14.80;1.00
18281;DHT22;9266;51.132;17.062;2023-05-16T14:57:02;14.80;1.00
18281;DHT22;9266;51.132;17.062;2023-05-16T14:59:29;14.80;1.00
18281;DHT22;9266;51.132;17.062;2023-05-16T15:01:57;14.60;99.90
18281;DHT22;9266;51.132;17.062;2023-05-16T15:04:26;14.80;1.00
18281;DHT22;9266;51.132;17.062;2023-05-16T15:06:53;14.80;99.90
18281;DHT22;9266;51.132;17.062;2023-05-16T15:09:20;14.70;1.00
18281;DHT22;9266;51.132;17.062;2023-05-16T15:11:47;14.60;99.90
18281;DHT22;9266;51.132;17.062;2023-05-16T15:14:14;14.40;1.00
18281;DHT22;9266;51.132;17.062;2023-05-16T15:16:41;14.50;1.00
18281;DHT22;9266;51.132;17.062;2023-05-16T15:19:08;14.40;1.00
18281;DHT22;9266;51.132;17.062;2023-05-16T15:21:37;14.40;99.90
18281;DHT22;9266;51.132;17.062;2023-05-16T15:24:04;14.40;99.90
18281;DHT22;9266;51.132;17.062;2023-05-16T15:26:32;14.30;11.40
18281;DHT22;9266;51.132;17.062;2023-05-16T15:29:00;14.30;64.00
18281;DHT22;9266;51.132;17.062;2023-05-16T15:31:27;14.30;99.90
18281;DHT22;9266;51.132;17.062;2023-05-16T15:33:56;14.20;1.00
18281;DHT22;9266;51.132;17.062;2023-05-16T15:36:23;14.20;99.90
18281;DHT22;9266;51.132;17.062;2023-05-16T15:38:52;14.20;1.00
18281;DHT22;9266;51.132;17.062;2023-05-16T15:41:19;14.20;99.90
18281;DHT22;9266;51.132;17.062;2023-05-16T15:43:46;14.20;99.90
18281;DHT22;9266;51.132;17.062;2023-05-16T15:46:13;14.00;99.90
18281;DHT22;9266;51.132;17.062;2023-05-16T15:48:40;13.80;1.00